createdAt,value
2023-08-03T00:01:37.741Z,3.13
2023-08-03T00:04:24.665Z,2.97
2023-08-03T00:07:13.529Z,2.45
2023-08-03T00:10:00.063Z,2.53
2023-08-03T00:12:46.619Z,2.38
2023-08-03T00:15:32.961Z,2.65
2023-08-03T00:18:22.103Z,2.50
2023-08-03T00:21:16.543Z,2.95
2023-08-03T00:24:09.218Z,3.00
2023-08-03T00:26:57.379Z,2.97
2023-08-03T00:29:43.562Z,2.60
2023-08-03T00:32:29.774Z,3.08
2023-08-03T00:35:16.317Z,2.60
2023-08-03T00:38:03.852Z,2.92
2023-08-03T00:40:51.789Z,2.35
2023-08-03T00:43:41.020Z,2.92
2023-08-03T00:46:27.462Z,2.42
2023-08-03T00:49:13.904Z,3.13
2023-08-03T00:52:00.387Z,3.08
2023-08-03T00:54:47.368Z,3.05
2023-08-03T00:57:33.966Z,2.58
2023-08-03T01:00:20.443Z,3.17
2023-08-03T01:03:07.947Z,2.92
2023-08-03T01:05:54.082Z,2.88
2023-08-03T01:08:40.284Z,2.88
2023-08-03T01:11:27.202Z,2.78
2023-08-03T01:14:17.802Z,3.23
2023-08-03T01:17:04.776Z,2.90
2023-08-03T01:19:51.010Z,2.75
2023-08-03T01:22:49.465Z,3.05
2023-08-03T01:25:44.660Z,3.05
2023-08-03T01:28:58.861Z,3.13
2023-08-03T01:31:57.823Z,3.00
2023-08-03T01:34:56.066Z,2.78
2023-08-03T01:37:45.650Z,3.17
2023-08-03T01:40:47.498Z,2.75
2023-08-03T01:43:42.834Z,2.83
2023-08-03T01:46:48.560Z,3.10
2023-08-03T01:49:35.043Z,2.78
2023-08-03T01:52:23.701Z,3.08
2023-08-03T01:55:11.602Z,2.65
2023-08-03T01:57:57.912Z,2.78
2023-08-03T02:00:44.170Z,3.08
2023-08-03T02:03:30.657Z,3.17
2023-08-03T02:06:17.179Z,2.83
2023-08-03T02:09:12.529Z,2.85
2023-08-03T02:11:58.881Z,3.13
2023-08-03T02:14:44.890Z,2.22
2023-08-03T02:17:31.390Z,2.85
2023-08-03T02:20:17.381Z,3.10
2023-08-03T02:23:11.963Z,3.65
2023-08-03T02:26:03.926Z,2.92
2023-08-03T02:31:58.983Z,3.03
2023-08-03T02:34:49.344Z,2.90
2023-08-03T02:37:35.842Z,2.92
2023-08-03T02:40:30.781Z,3.50
2023-08-03T02:46:40.979Z,3.33
2023-08-03T02:49:44.026Z,3.05
2023-08-03T02:55:17.605Z,3.60
2023-08-03T02:58:08.711Z,4.22
2023-08-03T03:01:00.846Z,3.78
2023-08-03T03:04:17.004Z,3.20
2023-08-03T03:07:06.326Z,3.47
2023-08-03T03:09:52.585Z,3.58
2023-08-03T03:12:39.033Z,3.38
2023-08-03T03:15:44.058Z,3.17
2023-08-03T03:18:56.857Z,2.97
2023-08-03T03:25:06.673Z,3.20
2023-08-03T03:28:23.044Z,2.85
2023-08-03T03:31:09.480Z,3.05
2023-08-03T03:34:34.179Z,3.15
2023-08-03T03:37:32.251Z,3.38
2023-08-03T03:40:21.287Z,3.85
2023-08-03T03:43:23.904Z,2.65
2023-08-03T03:46:40.902Z,2.70
2023-08-03T03:49:59.226Z,2.47
2023-08-03T03:52:49.091Z,3.00
2023-08-03T03:55:46.415Z,3.67
2023-08-03T03:58:37.257Z,4.05
2023-08-03T04:04:13.009Z,4.13
2023-08-03T04:06:59.174Z,3.33
2023-08-03T04:09:45.636Z,3.80
2023-08-03T04:12:31.844Z,3.30
2023-08-03T04:15:28.117Z,3.65
2023-08-03T04:18:14.234Z,4.00
2023-08-03T04:21:04.037Z,3.58
2023-08-03T04:24:09.124Z,3.65
2023-08-03T04:26:56.561Z,3.72
2023-08-03T04:29:46.861Z,4.00
2023-08-03T04:32:33.302Z,3.80
2023-08-03T04:35:19.539Z,4.03
2023-08-03T04:38:11.892Z,3.03
2023-08-03T04:41:03.506Z,3.85
2023-08-03T04:43:53.181Z,4.25
2023-08-03T04:46:39.792Z,4.32
2023-08-03T04:49:47.935Z,4.05
2023-08-03T04:52:57.614Z,3.25
2023-08-03T04:56:07.094Z,3.60
2023-08-03T05:02:31.775Z,3.78
2023-08-03T05:05:43.858Z,4.47
2023-08-03T05:08:33.781Z,4.07
2023-08-03T05:11:25.474Z,4.05
2023-08-03T05:14:25.329Z,3.40
2023-08-03T05:17:17.961Z,3.22
2023-08-03T05:20:14.909Z,3.55
2023-08-03T05:23:05.332Z,3.85
2023-08-03T05:26:01.565Z,3.65
2023-08-03T05:28:54.388Z,2.97
2023-08-03T05:31:52.651Z,3.25
2023-08-03T05:34:48.905Z,3.80
2023-08-03T05:37:39.201Z,3.53
2023-08-03T05:40:26.567Z,3.30
2023-08-03T05:43:22.301Z,3.67
2023-08-03T05:46:17.132Z,3.63
2023-08-03T05:49:38.495Z,3.75
2023-08-03T05:52:37.369Z,3.15
2023-08-03T05:55:32.138Z,3.17
2023-08-03T05:58:34.164Z,3.40
2023-08-03T06:01:24.769Z,3.70
2023-08-03T06:04:16.571Z,3.08
2023-08-03T06:07:07.665Z,3.67
2023-08-03T06:10:10.235Z,4.03
2023-08-03T06:13:09.819Z,3.78
2023-08-03T06:16:12.702Z,3.42
2023-08-03T06:19:16.148Z,3.45
2023-08-03T06:22:17.727Z,2.85
2023-08-03T06:25:14.335Z,3.78
2023-08-03T06:28:06.530Z,3.30
2023-08-03T06:30:53.081Z,3.92
2023-08-03T06:33:51.553Z,3.20
2023-08-03T06:36:53.356Z,3.30
2023-08-03T06:43:04.690Z,3.40
2023-08-03T06:46:03.079Z,3.28
2023-08-03T06:50:07.672Z,2.90
2023-08-03T06:52:09.151Z,3.38
2023-08-03T06:54:57.834Z,2.75
2023-08-03T06:57:48.334Z,3.60
2023-08-03T07:00:50.818Z,3.25
2023-08-03T07:03:41.171Z,2.85
2023-08-03T07:06:49.681Z,3.63
2023-08-03T07:09:42.703Z,3.00
2023-08-03T07:12:39.100Z,3.15
2023-08-03T07:15:43.325Z,3.10
2023-08-03T07:18:45.012Z,3.30
2023-08-03T07:21:34.694Z,2.92
2023-08-03T07:24:30.132Z,3.53
2023-08-03T07:27:45.283Z,2.75
2023-08-03T07:30:40.217Z,4.22
2023-08-03T07:33:45.477Z,2.97
2023-08-03T07:37:24.388Z,2.90
2023-08-03T07:40:23.758Z,3.38
2023-08-03T07:43:27.262Z,3.05
2023-08-03T07:46:32.659Z,3.55
2023-08-03T07:49:25.941Z,3.63
2023-08-03T07:52:24.293Z,2.88
2023-08-03T07:55:19.868Z,3.05
2023-08-03T07:58:07.470Z,2.63
2023-08-03T08:01:13.975Z,2.38
2023-08-03T08:04:03.735Z,2.80
2023-08-03T08:07:05.464Z,2.83
2023-08-03T08:10:04.377Z,3.03
2023-08-03T08:12:53.001Z,2.65
2023-08-03T08:15:40.411Z,3.40
2023-08-03T08:18:30.460Z,3.38
2023-08-03T08:21:19.989Z,2.30
2023-08-03T08:24:36.483Z,2.53
2023-08-03T08:27:36.815Z,3.20
2023-08-03T08:30:26.350Z,2.80
2023-08-03T08:33:12.601Z,2.70
2023-08-03T08:36:06.177Z,2.40
2023-08-03T08:38:58.249Z,2.20
2023-08-03T08:44:52.590Z,2.17
2023-08-03T08:47:40.145Z,2.33
2023-08-03T08:51:07.420Z,2.10
2023-08-03T08:57:08.035Z,1.65
2023-08-03T09:00:31.044Z,1.85
2023-08-03T09:06:51.429Z,2.03
2023-08-03T09:09:44.409Z,1.90
2023-08-03T09:12:40.785Z,2.00
2023-08-03T09:15:42.372Z,2.15
2023-08-03T09:18:50.821Z,1.27
2023-08-03T09:25:10.739Z,1.30
2023-08-03T09:28:48.413Z,1.70
2023-08-03T09:31:55.228Z,1.70
2023-08-03T09:34:46.261Z,1.58
2023-08-03T09:41:05.476Z,2.03
2023-08-03T09:43:52.441Z,1.88
2023-08-03T09:46:38.658Z,2.88
2023-08-03T09:49:31.989Z,2.00
2023-08-03T09:53:00.801Z,1.75
2023-08-03T09:56:05.914Z,2.40
2023-08-03T09:59:24.036Z,2.55
2023-08-03T10:02:24.463Z,1.67
2023-08-03T10:05:22.821Z,1.92
2023-08-03T10:08:18.273Z,1.70
2023-08-03T10:11:06.564Z,1.63
2023-08-03T10:14:07.213Z,2.08
2023-08-03T10:17:10.361Z,1.70
2023-08-03T10:23:31.331Z,1.70
2023-08-03T10:26:38.700Z,1.58
2023-08-03T10:33:04.862Z,2.90
2023-08-03T10:35:58.667Z,1.85
2023-08-03T10:39:19.955Z,1.70
2023-08-03T10:42:25.992Z,1.77
2023-08-03T10:45:40.170Z,2.00
2023-08-03T10:48:39.323Z,1.52
2023-08-03T10:51:39.797Z,1.70
2023-08-03T10:54:50.082Z,1.60
2023-08-03T10:57:45.105Z,1.80
2023-08-03T11:00:51.279Z,1.63
2023-08-03T11:03:50.247Z,1.80
2023-08-03T11:07:06.831Z,1.42
2023-08-03T11:09:53.889Z,1.48
2023-08-03T11:12:58.778Z,1.80
2023-08-03T11:15:48.860Z,1.00
2023-08-03T11:18:35.464Z,1.85
2023-08-03T11:21:21.744Z,1.48
2023-08-03T11:24:08.082Z,2.35
2023-08-03T11:26:54.324Z,2.00
2023-08-03T11:29:44.010Z,1.75
2023-08-03T11:32:36.197Z,1.48
2023-08-03T11:36:21.107Z,1.38
2023-08-03T11:39:10.911Z,1.20
2023-08-03T11:46:17.488Z,1.40
2023-08-03T11:52:35.155Z,1.60
2023-08-03T11:55:30.527Z,1.27
2023-08-03T11:58:25.830Z,1.25
2023-08-03T12:01:16.592Z,1.10
2023-08-03T12:07:20.023Z,1.25
2023-08-03T12:10:17.993Z,1.40
2023-08-03T12:13:04.918Z,1.23
2023-08-03T12:15:50.776Z,0.80
2023-08-03T12:19:05.791Z,1.13
2023-08-03T12:21:58.896Z,0.80
2023-08-03T12:24:57.039Z,1.45
2023-08-03T12:27:44.221Z,1.30
2023-08-03T12:30:33.412Z,1.63
2023-08-03T12:33:26.006Z,1.30
2023-08-03T12:36:18.707Z,1.10
2023-08-03T12:39:10.201Z,1.20
2023-08-03T12:42:02.774Z,1.13
2023-08-03T12:45:23.483Z,1.20
2023-08-03T12:51:13.633Z,1.38
2023-08-03T12:54:08.570Z,1.05
2023-08-03T12:56:54.880Z,1.00
2023-08-03T12:59:59.150Z,1.08
2023-08-03T13:03:10.844Z,1.17
2023-08-03T13:05:57.253Z,1.15
2023-08-03T13:08:45.068Z,0.90
2023-08-03T13:11:31.351Z,1.17
2023-08-03T13:14:17.963Z,1.60
2023-08-03T13:17:04.509Z,1.23
2023-08-03T13:19:50.681Z,0.93
2023-08-03T13:22:42.202Z,1.65
2023-08-03T13:25:29.656Z,1.83
2023-08-03T13:28:15.645Z,1.33
2023-08-03T13:31:01.875Z,1.00
2023-08-03T13:33:48.230Z,0.90
2023-08-03T13:36:34.461Z,1.10
2023-08-03T13:39:22.499Z,1.05
2023-08-03T13:42:08.733Z,0.70
2023-08-03T13:44:56.531Z,1.17
2023-08-03T13:47:43.085Z,1.48
2023-08-03T13:50:58.650Z,1.40
2023-08-03T13:53:56.589Z,1.40
2023-08-03T13:56:43.626Z,1.10
2023-08-03T13:59:29.853Z,1.25
2023-08-03T14:08:15.212Z,0.80
2023-08-03T14:16:43.013Z,1.30
2023-08-03T14:19:29.501Z,0.90
2023-08-03T14:22:15.873Z,1.05
2023-08-03T14:27:53.606Z,1.13
2023-08-03T14:30:40.127Z,1.45
2023-08-03T14:33:26.416Z,1.40
2023-08-03T14:36:12.970Z,1.75
2023-08-03T14:39:01.723Z,1.50
2023-08-03T14:41:49.713Z,1.15
2023-08-03T14:44:36.281Z,1.50
2023-08-03T14:47:22.770Z,1.77
2023-08-03T14:52:58.407Z,1.13
2023-08-03T14:58:33.967Z,1.13
2023-08-03T15:01:20.346Z,2.10
2023-08-03T15:04:14.792Z,1.35
2023-08-03T15:07:06.480Z,1.50
2023-08-03T15:09:55.602Z,1.02
2023-08-03T15:12:41.793Z,1.13
2023-08-03T15:15:31.780Z,1.90
2023-08-03T15:18:18.770Z,1.02
2023-08-03T15:21:20.784Z,1.23
2023-08-03T15:24:08.958Z,1.10
2023-08-03T15:26:58.363Z,1.20
2023-08-03T15:32:37.396Z,1.13
2023-08-03T15:35:25.367Z,1.05
2023-08-03T15:38:14.738Z,1.00
2023-08-03T15:41:04.438Z,0.90
2023-08-03T15:43:55.447Z,1.40
2023-08-03T15:46:58.038Z,0.93
2023-08-03T15:49:52.583Z,1.25
2023-08-03T15:53:04.327Z,1.67
2023-08-03T16:06:08.841Z,1.02
2023-08-03T16:08:55.057Z,1.40
2023-08-03T16:11:54.127Z,1.23
2023-08-03T16:14:45.129Z,1.20
2023-08-03T16:17:31.613Z,1.40
2023-08-03T16:20:18.286Z,1.00
2023-08-03T16:23:06.018Z,1.02
2023-08-03T16:25:52.229Z,0.70
2023-08-03T16:28:38.550Z,1.50
2023-08-03T16:31:26.545Z,0.98
2023-08-03T16:34:13.278Z,1.10
2023-08-03T16:36:59.899Z,1.13
2023-08-03T16:39:46.168Z,1.85
2023-08-03T16:42:32.346Z,1.77
2023-08-03T16:45:18.768Z,1.10
2023-08-03T16:48:05.605Z,0.90
2023-08-03T16:50:51.623Z,1.33
2023-08-03T16:53:37.810Z,1.20
2023-08-03T16:56:24.149Z,1.20
2023-08-03T16:59:10.311Z,1.23
2023-08-03T17:01:56.617Z,1.10
2023-08-03T17:04:43.659Z,0.82
2023-08-03T17:07:29.645Z,1.30
2023-08-03T17:10:15.996Z,1.33
2023-08-03T17:13:05.078Z,1.27
2023-08-03T17:15:54.670Z,1.35
2023-08-03T17:18:42.136Z,0.68
2023-08-03T17:21:28.494Z,1.20
2023-08-03T17:24:15.575Z,1.58
2023-08-03T17:27:01.545Z,0.93
2023-08-03T17:29:53.923Z,1.35
2023-08-03T17:32:43.237Z,1.77
2023-08-03T17:35:30.323Z,1.38
2023-08-03T17:38:17.494Z,1.27
2023-08-03T17:41:07.224Z,1.67
2023-08-03T17:43:54.064Z,1.55
2023-08-03T17:46:40.464Z,1.33
2023-08-03T17:49:29.592Z,1.27
2023-08-03T17:52:15.633Z,1.45
2023-08-03T17:55:02.108Z,1.73
2023-08-03T17:57:48.372Z,1.20
2023-08-03T18:00:34.861Z,0.90
2023-08-03T18:03:21.755Z,1.88
2023-08-03T18:06:12.267Z,1.50
2023-08-03T18:08:58.497Z,2.03
2023-08-03T18:11:44.679Z,1.67
2023-08-03T18:14:30.996Z,1.85
2023-08-03T18:17:17.691Z,2.38
2023-08-03T18:20:06.800Z,1.05
2023-08-03T18:22:54.509Z,1.30
2023-08-03T18:25:40.523Z,1.58
2023-08-03T18:28:28.700Z,1.30
2023-08-03T18:31:15.254Z,1.90
2023-08-03T18:34:01.887Z,1.58
2023-08-03T18:36:48.508Z,1.80
2023-08-03T18:39:34.984Z,1.60
2023-08-03T18:42:21.200Z,2.13
2023-08-03T18:45:08.194Z,2.08
2023-08-03T18:47:54.352Z,2.28
2023-08-03T18:50:40.476Z,2.50
2023-08-03T18:53:27.186Z,2.13
2023-08-03T18:56:14.385Z,1.88
2023-08-03T18:59:00.615Z,2.42
2023-08-03T19:01:46.569Z,1.95
2023-08-03T19:04:34.039Z,2.70
2023-08-03T19:07:20.599Z,2.17
2023-08-03T19:10:10.076Z,1.58
2023-08-03T19:12:56.507Z,1.77
2023-08-03T19:15:42.937Z,1.92
2023-08-03T19:18:32.417Z,1.90
2023-08-03T19:21:19.025Z,2.08
2023-08-03T19:24:06.768Z,2.30
2023-08-03T19:26:54.920Z,1.95
2023-08-03T19:29:41.343Z,1.58
2023-08-03T19:32:27.867Z,1.83
2023-08-03T19:35:16.625Z,2.72
2023-08-03T19:38:03.476Z,2.20
2023-08-03T19:40:52.168Z,2.38
2023-08-03T19:43:53.238Z,2.60
2023-08-03T19:46:39.579Z,1.55
2023-08-03T19:55:06.104Z,2.45
2023-08-03T20:06:37.997Z,2.67
2023-08-03T20:09:24.334Z,1.85
2023-08-03T20:12:10.602Z,2.58
2023-08-03T20:15:10.628Z,1.90
2023-08-03T20:20:50.167Z,1.73
2023-08-03T20:23:40.087Z,1.83
2023-08-03T20:29:21.401Z,1.45
2023-08-03T20:32:07.724Z,1.90
2023-08-03T20:34:54.498Z,2.00
2023-08-03T20:37:42.535Z,1.50
2023-08-03T20:46:08.146Z,1.80
2023-08-03T20:48:54.230Z,1.65
2023-08-03T20:51:40.471Z,2.15
2023-08-03T20:57:18.532Z,2.03
2023-08-03T21:00:09.145Z,1.80
2023-08-03T21:02:57.606Z,1.88
2023-08-03T21:05:47.675Z,1.35
2023-08-03T21:08:34.769Z,1.35
2023-08-03T21:11:21.067Z,1.90
2023-08-03T21:14:08.508Z,1.40
2023-08-03T21:16:54.726Z,1.88
2023-08-03T21:19:42.740Z,1.48
2023-08-03T21:22:29.360Z,1.95
2023-08-03T21:25:15.596Z,1.83
2023-08-03T21:28:01.805Z,1.98
2023-08-03T21:30:48.329Z,2.17
2023-08-03T21:33:34.928Z,1.67
2023-08-03T21:36:21.124Z,2.03
2023-08-03T21:39:07.466Z,2.17
2023-08-03T21:41:53.741Z,2.15
2023-08-03T21:44:41.172Z,1.35
2023-08-03T21:47:33.628Z,1.45
2023-08-03T21:50:20.543Z,2.80
2023-08-03T21:53:06.840Z,1.58
2023-08-03T21:55:53.285Z,1.98
2023-08-03T21:58:39.704Z,2.22
2023-08-03T22:01:28.320Z,1.65
2023-08-03T22:04:14.553Z,2.08
2023-08-03T22:07:01.154Z,2.33
2023-08-03T22:09:47.450Z,2.08
2023-08-03T22:12:33.854Z,2.17
2023-08-03T22:15:22.978Z,2.30
2023-08-03T22:18:08.909Z,1.70
2023-08-03T22:20:55.366Z,1.75
2023-08-03T22:23:41.825Z,1.80
2023-08-03T22:26:29.039Z,1.98
2023-08-03T22:29:15.396Z,2.28
2023-08-03T22:32:01.722Z,2.00
2023-08-03T22:34:47.889Z,2.00
2023-08-03T22:37:34.157Z,2.33
2023-08-03T22:40:23.503Z,1.52
2023-08-03T22:43:10.087Z,1.70
2023-08-03T22:45:56.306Z,1.70
2023-08-03T22:48:42.698Z,2.20
2023-08-03T22:51:28.962Z,1.63
2023-08-03T22:54:15.390Z,2.00
2023-08-03T22:57:27.320Z,2.53
2023-08-03T23:03:00.163Z,2.10
2023-08-03T23:05:46.437Z,1.88
2023-08-03T23:08:51.471Z,1.75
2023-08-03T23:11:37.975Z,1.88
2023-08-03T23:14:24.346Z,1.67
2023-08-03T23:17:10.512Z,2.85
2023-08-03T23:19:57.116Z,1.33
2023-08-03T23:22:43.104Z,1.58
2023-08-03T23:25:30.011Z,1.90
2023-08-03T23:28:16.559Z,2.00
2023-08-03T23:31:03.263Z,1.73
2023-08-03T23:33:49.858Z,1.90
2023-08-03T23:36:36.312Z,2.05
2023-08-03T23:39:22.672Z,2.42
2023-08-03T23:42:27.470Z,2.10
2023-08-03T23:45:13.818Z,2.05
2023-08-03T23:48:00.077Z,2.45
2023-08-03T23:50:46.109Z,2.10
2023-08-03T23:53:32.451Z,1.60
2023-08-03T23:56:19.080Z,2.20
2023-08-03T23:59:05.271Z,2.10
